createdAt,value
2018-10-02T00:02:05.243Z,3.33
2018-10-02T00:04:34.147Z,2.73
2018-10-02T00:07:03.174Z,3.73
2018-10-02T00:09:32.071Z,3.30
2018-10-02T00:12:06.206Z,5.10
2018-10-02T00:14:35.360Z,7.57
2018-10-02T00:17:04.351Z,6.43
2018-10-02T00:19:33.371Z,2.90
2018-10-02T00:22:02.343Z,6.13
2018-10-02T00:24:31.298Z,5.67
2018-10-02T00:27:00.235Z,2.50
2018-10-02T00:29:29.219Z,3.67
2018-10-02T00:31:58.393Z,2.47
2018-10-02T00:34:27.339Z,3.77
2018-10-02T00:36:56.371Z,1.90
2018-10-02T00:39:25.447Z,4.93
2018-10-02T00:41:54.611Z,1.80
2018-10-02T00:44:23.567Z,2.43
2018-10-02T00:46:52.576Z,3.30
2018-10-02T00:49:21.595Z,1.60
2018-10-02T00:51:50.583Z,3.03
2018-10-02T00:54:19.512Z,3.23
2018-10-02T00:56:48.516Z,2.60
2018-10-02T00:59:17.547Z,1.90
2018-10-02T01:01:52.320Z,3.83
2018-10-02T01:04:26.991Z,4.97
2018-10-02T01:06:56.157Z,2.47
2018-10-02T01:09:25.101Z,4.90
2018-10-02T01:11:53.999Z,2.70
2018-10-02T01:14:22.927Z,3.40
2018-10-02T01:16:51.941Z,2.30
2018-10-02T01:19:21.079Z,1.40
2018-10-02T01:21:50.047Z,2.47
2018-10-02T01:24:19.207Z,3.73
2018-10-02T01:26:48.108Z,3.23
2018-10-02T01:29:17.149Z,5.80
2018-10-02T01:31:46.088Z,4.47
2018-10-02T01:34:15.062Z,4.33
2018-10-02T01:36:44.086Z,3.93
2018-10-02T01:39:13.105Z,9.33
2018-10-02T01:41:42.092Z,3.13
2018-10-02T01:44:11.141Z,4.07
2018-10-02T01:46:40.091Z,6.13
2018-10-02T01:49:09.059Z,3.40
2018-10-02T01:51:38.071Z,2.93
2018-10-02T01:54:07.067Z,2.67
2018-10-02T01:56:36.016Z,7.90
2018-10-02T01:59:05.019Z,7.07
2018-10-02T02:01:34.118Z,3.60
2018-10-02T02:04:03.075Z,7.03
2018-10-02T02:06:32.148Z,4.80
2018-10-02T02:09:07.079Z,2.67
2018-10-02T02:11:36.379Z,3.23
2018-10-02T02:14:05.396Z,7.77
2018-10-02T02:16:34.281Z,9.20
2018-10-02T02:19:03.275Z,4.33
2018-10-02T02:21:32.127Z,6.40
2018-10-02T02:24:01.023Z,9.63
2018-10-02T02:26:29.915Z,5.77
2018-10-02T02:28:58.854Z,6.63
2018-10-02T02:31:27.758Z,6.00
2018-10-02T02:33:56.879Z,6.30
2018-10-02T02:36:25.838Z,4.07
2018-10-02T02:38:55.157Z,5.93
2018-10-02T02:41:24.265Z,7.30
2018-10-02T02:43:53.171Z,6.50
2018-10-02T02:46:22.188Z,9.83
2018-10-02T02:48:56.607Z,6.67
2018-10-02T02:51:30.988Z,13.60
2018-10-02T02:53:59.977Z,6.53
2018-10-02T02:56:29.895Z,8.97
2018-10-02T02:58:59.860Z,6.40
2018-10-02T03:01:29.371Z,9.63
2018-10-02T03:03:58.669Z,7.60
2018-10-02T03:06:27.631Z,6.90
2018-10-02T03:08:56.913Z,8.83
2018-10-02T03:11:25.904Z,5.93
2018-10-02T03:13:54.859Z,11.23
2018-10-02T03:16:23.855Z,11.23
2018-10-02T03:18:52.840Z,6.80
2018-10-02T03:21:21.926Z,10.47
2018-10-02T03:23:50.876Z,9.27
2018-10-02T03:26:19.793Z,9.40
2018-10-02T03:28:48.724Z,13.27
2018-10-02T03:31:17.655Z,9.47
2018-10-02T03:33:46.649Z,9.37
2018-10-02T03:36:15.579Z,8.93
2018-10-02T03:38:44.732Z,10.57
2018-10-02T03:41:13.722Z,8.50
2018-10-02T03:43:42.791Z,7.30
2018-10-02T03:46:12.882Z,11.63
2018-10-02T03:48:41.923Z,10.00
2018-10-02T03:51:10.940Z,12.43
2018-10-02T03:53:39.957Z,7.50
2018-10-02T03:56:08.900Z,9.50
2018-10-02T03:58:37.897Z,6.93
2018-10-02T04:01:07.066Z,6.17
2018-10-02T04:03:36.118Z,7.53
2018-10-02T04:06:05.186Z,10.77
2018-10-02T04:09:37.567Z,12.40
2018-10-02T04:12:06.556Z,8.27
2018-10-02T04:14:35.599Z,10.87
2018-10-02T04:17:04.773Z,11.03
2018-10-02T04:19:33.680Z,12.43
2018-10-02T04:22:02.651Z,10.63
2018-10-02T04:24:31.519Z,9.17
2018-10-02T04:27:00.381Z,9.30
2018-10-02T04:29:29.358Z,8.67
2018-10-02T04:31:58.259Z,7.07
2018-10-02T04:34:27.214Z,7.90
2018-10-02T04:38:25.682Z,7.17
2018-10-02T04:40:54.606Z,11.47
2018-10-02T04:43:23.550Z,9.43
2018-10-02T04:45:52.522Z,13.77
2018-10-02T04:48:21.476Z,7.13
2018-10-02T04:50:50.394Z,9.60
2018-10-02T04:53:19.318Z,8.50
2018-10-02T04:55:48.289Z,6.97
2018-10-02T04:58:17.244Z,8.00
2018-10-02T05:00:46.160Z,6.37
2018-10-02T05:03:15.066Z,6.87
2018-10-02T05:05:44.029Z,9.43
2018-10-02T05:08:13.144Z,10.80
2018-10-02T05:10:42.034Z,13.63
2018-10-02T05:13:10.924Z,12.03
2018-10-02T05:15:39.803Z,13.20
2018-10-02T05:18:08.821Z,9.67
2018-10-02T05:20:37.773Z,11.93
2018-10-02T05:23:06.770Z,8.73
2018-10-02T05:25:35.695Z,10.70
2018-10-02T05:28:04.584Z,10.23
2018-10-02T05:30:33.497Z,12.87
2018-10-02T05:33:02.429Z,15.57
2018-10-02T05:35:31.445Z,13.53
2018-10-02T05:38:00.329Z,8.90
2018-10-02T05:40:29.264Z,12.17
2018-10-02T05:42:58.176Z,12.13
2018-10-02T05:45:28.136Z,13.03
2018-10-02T05:47:57.123Z,9.67
2018-10-02T05:50:26.236Z,11.67
2018-10-02T05:52:55.177Z,12.90
2018-10-02T05:55:25.006Z,9.23
2018-10-02T05:57:54.036Z,13.90
2018-10-02T06:00:22.985Z,12.73
2018-10-02T06:02:52.037Z,9.17
2018-10-02T06:05:20.957Z,10.63
2018-10-02T06:07:49.981Z,8.90
2018-10-02T06:10:19.024Z,13.00
2018-10-02T06:12:47.981Z,9.93
2018-10-02T06:15:17.067Z,8.63
2018-10-02T06:17:46.050Z,7.93
2018-10-02T06:20:15.183Z,7.80
2018-10-02T06:22:44.156Z,6.73
2018-10-02T06:25:13.161Z,12.10
2018-10-02T06:27:42.097Z,11.60
2018-10-02T06:30:11.105Z,8.07
2018-10-02T06:32:40.119Z,8.17
2018-10-02T06:35:09.029Z,10.17
2018-10-02T06:37:37.991Z,8.73
2018-10-02T06:40:07.033Z,13.53
2018-10-02T06:42:35.991Z,11.53
2018-10-02T06:45:05.171Z,12.47
2018-10-02T06:47:34.011Z,11.63
2018-10-02T06:50:02.959Z,11.50
2018-10-02T06:52:32.291Z,8.07
2018-10-02T06:55:00.810Z,9.57
2018-10-02T06:57:29.717Z,14.23
2018-10-02T06:59:58.598Z,15.33
2018-10-02T07:02:27.524Z,8.10
2018-10-02T07:04:56.415Z,11.93
2018-10-02T07:07:25.567Z,8.57
2018-10-02T07:09:54.529Z,10.17
2018-10-02T07:12:23.490Z,12.87
2018-10-02T07:14:52.438Z,10.63
2018-10-02T07:17:21.430Z,11.23
2018-10-02T07:19:50.307Z,10.83
2018-10-02T07:22:19.220Z,8.37
2018-10-02T07:24:48.327Z,7.90
2018-10-02T07:27:17.419Z,9.77
2018-10-02T07:29:46.235Z,14.53
2018-10-02T07:32:15.283Z,7.50
2018-10-02T07:34:44.193Z,12.90
2018-10-02T07:37:13.129Z,12.97
2018-10-02T07:39:42.012Z,9.00
2018-10-02T07:42:11.111Z,12.33
2018-10-02T07:44:40.026Z,9.97
2018-10-02T07:47:08.848Z,8.87
2018-10-02T07:49:37.836Z,6.93
2018-10-02T07:52:06.788Z,11.37
2018-10-02T07:54:35.760Z,6.33
2018-10-02T07:57:04.847Z,8.27
2018-10-02T07:59:33.774Z,8.33
2018-10-02T08:02:02.716Z,9.83
2018-10-02T08:04:31.623Z,8.40
2018-10-02T08:07:00.600Z,8.43
2018-10-02T08:09:29.506Z,7.57
2018-10-02T08:11:58.494Z,9.73
2018-10-02T08:14:27.383Z,8.30
2018-10-02T08:16:56.287Z,14.93
2018-10-02T08:19:25.370Z,16.03
2018-10-02T08:21:54.272Z,11.03
2018-10-02T08:24:23.188Z,11.00
2018-10-02T08:26:52.219Z,13.27
2018-10-02T08:29:21.122Z,13.67
2018-10-02T08:31:50.120Z,13.57
2018-10-02T08:34:19.048Z,14.43
2018-10-02T08:36:47.976Z,18.40
2018-10-02T08:39:16.992Z,9.63
2018-10-02T08:41:45.902Z,13.97
2018-10-02T08:44:14.836Z,12.93
2018-10-02T08:46:43.859Z,15.47
2018-10-02T08:49:12.822Z,12.97
2018-10-02T08:51:41.775Z,18.03
2018-10-02T08:54:10.665Z,13.57
2018-10-02T08:56:39.737Z,16.23
2018-10-02T08:59:08.741Z,20.10
2018-10-02T09:01:37.643Z,19.80
2018-10-02T09:04:06.723Z,14.93
2018-10-02T09:06:35.742Z,17.33
2018-10-02T09:09:08.919Z,17.57
2018-10-02T09:11:37.877Z,19.23
2018-10-02T09:14:06.835Z,15.93
2018-10-02T09:16:35.882Z,12.30
2018-10-02T09:19:04.754Z,14.07
2018-10-02T09:21:33.768Z,12.43
2018-10-02T09:24:03.034Z,11.50
2018-10-02T09:26:32.064Z,13.07
2018-10-02T09:29:01.421Z,12.97
2018-10-02T09:31:35.558Z,11.73
2018-10-02T09:34:09.610Z,17.33
2018-10-02T09:36:43.903Z,11.93
2018-10-02T09:41:20.469Z,17.83
2018-10-02T09:43:54.295Z,18.37
2018-10-02T09:46:24.175Z,12.37
2018-10-02T09:48:53.102Z,13.30
2018-10-02T09:51:37.939Z,16.50
2018-10-02T09:54:07.201Z,12.80
2018-10-02T09:56:44.221Z,15.07
2018-10-02T09:59:14.566Z,10.03
2018-10-02T10:01:49.047Z,21.33
2018-10-02T10:04:18.473Z,11.17
2018-10-02T10:06:47.690Z,17.07
2018-10-02T10:09:16.780Z,11.13
2018-10-02T10:11:45.908Z,15.77
2018-10-02T10:14:15.040Z,13.00
2018-10-02T10:16:44.246Z,15.90
2018-10-02T10:19:13.385Z,14.80
2018-10-02T10:21:42.534Z,12.73
2018-10-02T10:24:11.704Z,13.87
2018-10-02T10:26:41.053Z,15.97
2018-10-02T10:29:10.053Z,13.00
2018-10-02T10:31:39.167Z,13.80
2018-10-02T10:34:08.282Z,12.33
2018-10-02T10:36:37.451Z,17.97
2018-10-02T10:39:08.235Z,10.60
2018-10-02T10:41:37.381Z,18.53
2018-10-02T10:44:06.561Z,13.73
2018-10-02T10:46:35.867Z,8.50
2018-10-02T10:49:04.995Z,10.33
2018-10-02T10:51:34.097Z,13.30
2018-10-02T10:54:03.185Z,9.27
2018-10-02T10:56:32.313Z,8.97
2018-10-02T10:59:01.420Z,9.07
2018-10-02T11:01:30.479Z,4.93
2018-10-02T11:03:59.519Z,8.80
2018-10-02T11:06:28.555Z,4.63
2018-10-02T11:08:57.716Z,6.20
2018-10-02T11:11:26.897Z,7.67
2018-10-02T11:13:56.243Z,13.40
2018-10-02T11:16:25.269Z,9.40
2018-10-02T11:18:54.525Z,7.60
2018-10-02T11:21:23.639Z,11.07
2018-10-02T11:23:52.719Z,8.37
2018-10-02T11:26:21.789Z,6.97
2018-10-02T11:28:50.885Z,5.23
2018-10-02T11:31:20.157Z,6.30
2018-10-02T11:33:49.263Z,11.37
2018-10-02T11:36:18.344Z,8.87
2018-10-02T11:38:47.415Z,5.47
2018-10-02T11:41:16.539Z,5.33
2018-10-02T11:43:45.566Z,7.67
2018-10-02T11:46:14.602Z,7.17
2018-10-02T11:48:43.688Z,8.17
2018-10-02T11:51:12.737Z,5.23
2018-10-02T11:53:42.024Z,7.20
2018-10-02T11:56:11.134Z,7.13
2018-10-02T11:58:40.194Z,4.37
2018-10-02T12:01:09.458Z,7.53
2018-10-02T12:03:38.560Z,7.60
2018-10-02T12:06:07.733Z,7.23
2018-10-02T12:08:36.875Z,7.70
2018-10-02T12:11:06.279Z,4.67
2018-10-02T12:13:35.582Z,8.50
2018-10-02T12:16:04.534Z,8.40
2018-10-02T12:18:33.730Z,5.83
2018-10-02T12:21:02.893Z,11.17
2018-10-02T12:23:32.052Z,5.13
2018-10-02T12:26:01.289Z,8.30
2018-10-02T12:28:30.385Z,5.77
2018-10-02T12:30:59.538Z,6.20
2018-10-02T12:33:28.617Z,3.30
2018-10-02T12:35:57.772Z,6.77
2018-10-02T12:38:26.877Z,7.87
2018-10-02T12:40:55.966Z,7.30
2018-10-02T12:43:25.046Z,5.40
2018-10-02T12:45:54.181Z,6.23
2018-10-02T12:48:23.377Z,5.83
2018-10-02T12:50:52.453Z,5.90
2018-10-02T12:53:21.613Z,8.67
2018-10-02T12:55:50.689Z,4.73
2018-10-02T12:58:19.828Z,9.03
2018-10-02T13:00:48.936Z,5.93
2018-10-02T13:03:18.140Z,5.77
2018-10-02T13:05:47.292Z,8.10
2018-10-02T13:08:16.430Z,7.40
2018-10-02T13:10:45.508Z,6.57
2018-10-02T13:13:14.675Z,4.33
2018-10-02T13:15:43.706Z,8.13
2018-10-02T13:18:12.796Z,6.80
2018-10-02T13:20:41.836Z,9.17
2018-10-02T13:23:11.031Z,8.63
2018-10-02T13:25:40.210Z,7.87
2018-10-02T13:28:09.316Z,3.30
2018-10-02T13:30:38.591Z,5.70
2018-10-02T13:33:07.932Z,6.83
2018-10-02T13:35:37.023Z,8.80
2018-10-02T13:38:06.410Z,6.97
2018-10-02T13:40:35.536Z,4.53
2018-10-02T13:43:04.635Z,8.37
2018-10-02T13:45:33.715Z,10.40
2018-10-02T13:48:03.008Z,10.97
2018-10-02T13:50:32.152Z,5.23
2018-10-02T13:53:01.181Z,6.87
2018-10-02T13:55:30.302Z,12.10
2018-10-02T13:57:59.428Z,3.40
2018-10-02T14:00:28.536Z,2.40
2018-10-02T14:02:57.586Z,6.17
2018-10-02T14:05:26.668Z,6.30
2018-10-02T14:07:55.758Z,3.83
2018-10-02T14:10:24.781Z,4.93
2018-10-02T14:12:54.080Z,7.33
2018-10-02T14:15:23.201Z,8.03
2018-10-02T14:17:52.337Z,2.33
2018-10-02T14:20:21.494Z,3.97
2018-10-02T14:22:50.660Z,4.00
2018-10-02T14:25:19.837Z,5.57
2018-10-02T14:27:48.852Z,4.50
2018-10-02T14:30:18.084Z,8.40
2018-10-02T14:32:47.224Z,9.40
2018-10-02T14:35:16.301Z,4.37
2018-10-02T14:37:45.404Z,3.20
2018-10-02T14:40:14.488Z,3.77
2018-10-02T14:42:43.620Z,4.73
2018-10-02T14:45:12.701Z,4.70
2018-10-02T14:47:41.778Z,3.00
2018-10-02T14:50:10.900Z,6.67
2018-10-02T14:52:40.018Z,6.77
2018-10-02T14:55:09.133Z,5.77
2018-10-02T14:57:38.203Z,11.23
2018-10-02T15:00:07.571Z,4.83
2018-10-02T15:02:36.712Z,4.40
2018-10-02T15:05:05.906Z,10.30
2018-10-02T15:07:34.920Z,5.53
2018-10-02T15:10:04.581Z,3.63
2018-10-02T15:12:33.684Z,4.13
2018-10-02T15:15:02.756Z,9.50
2018-10-02T15:17:31.860Z,6.07
2018-10-02T15:20:01.056Z,6.53
2018-10-02T15:22:30.102Z,10.13
2018-10-02T15:24:59.288Z,7.33
2018-10-02T15:27:28.355Z,6.60
2018-10-02T15:29:57.530Z,8.00
2018-10-02T15:32:26.623Z,4.63
2018-10-02T15:34:55.694Z,15.67
2018-10-02T15:37:24.977Z,5.00
2018-10-02T15:39:53.984Z,11.27
2018-10-02T15:42:23.014Z,10.27
2018-10-02T15:44:52.102Z,8.17
2018-10-02T15:47:21.230Z,7.40
2018-10-02T15:49:50.264Z,10.60
2018-10-02T15:52:19.318Z,8.83
2018-10-02T15:54:48.426Z,6.10
2018-10-02T15:57:17.564Z,8.77
2018-10-02T15:59:46.626Z,10.87
2018-10-02T16:02:21.234Z,6.57
2018-10-02T16:04:50.331Z,8.43
2018-10-02T16:07:19.468Z,10.60
2018-10-02T16:09:48.593Z,5.87
2018-10-02T16:12:17.646Z,7.50
2018-10-02T16:14:46.719Z,9.63
2018-10-02T16:17:15.729Z,9.53
2018-10-02T16:19:44.795Z,6.87
2018-10-02T16:22:13.863Z,9.50
2018-10-02T16:24:42.951Z,10.77
2018-10-02T16:27:12.061Z,11.70
2018-10-02T16:29:41.189Z,8.40
2018-10-02T16:32:10.261Z,6.43
2018-10-02T16:34:48.983Z,8.20
2018-10-02T16:37:08.418Z,11.30
2018-10-02T16:39:37.611Z,7.70
2018-10-02T16:42:06.734Z,7.03
2018-10-02T16:44:35.743Z,9.00
2018-10-02T16:47:04.923Z,7.20
2018-10-02T16:49:34.090Z,4.97
2018-10-02T16:52:03.089Z,4.77
2018-10-02T16:54:32.107Z,7.70
2018-10-02T16:57:01.184Z,5.60
2018-10-02T16:59:30.336Z,12.60
2018-10-02T17:01:59.376Z,11.73
2018-10-02T17:04:28.641Z,10.63
2018-10-02T17:06:57.850Z,8.30
2018-10-02T17:09:26.915Z,10.23
2018-10-02T17:11:55.942Z,8.37
2018-10-02T17:14:25.165Z,7.67
2018-10-02T17:16:54.248Z,8.30
2018-10-02T17:19:23.284Z,7.30
2018-10-02T17:21:52.445Z,7.87
2018-10-02T17:24:21.500Z,9.50
2018-10-02T17:26:50.614Z,12.47
2018-10-02T17:29:19.898Z,13.43
2018-10-02T17:31:49.026Z,10.43
2018-10-02T17:34:18.228Z,8.47
2018-10-02T17:36:47.228Z,7.80
2018-10-02T17:39:16.324Z,6.67
2018-10-02T17:41:46.238Z,11.53
2018-10-02T17:44:15.468Z,7.00
2018-10-02T17:46:44.698Z,11.00
2018-10-02T17:49:13.704Z,16.03
2018-10-02T17:51:43.072Z,9.70
2018-10-02T17:54:12.199Z,8.33
2018-10-02T17:56:41.480Z,10.77
2018-10-02T17:59:10.724Z,8.30
2018-10-02T18:01:39.894Z,9.70
2018-10-02T18:04:09.196Z,11.27
2018-10-02T18:06:38.220Z,8.20
2018-10-02T18:09:08.138Z,8.40
2018-10-02T18:11:37.498Z,9.03
2018-10-02T18:14:06.609Z,10.73
2018-10-02T18:16:35.904Z,5.90
2018-10-02T18:19:04.941Z,12.17
2018-10-02T18:21:34.054Z,9.83
2018-10-02T18:24:03.191Z,8.40
2018-10-02T18:26:32.374Z,8.67
2018-10-02T18:29:01.414Z,14.57
2018-10-02T18:31:30.539Z,18.27
2018-10-02T18:33:59.669Z,8.60
2018-10-02T18:36:28.741Z,8.67
2018-10-02T18:38:57.861Z,9.37
2018-10-02T18:41:27.894Z,10.20
2018-10-02T18:43:56.953Z,9.27
2018-10-02T18:46:26.114Z,10.30
2018-10-02T18:48:55.261Z,14.97
2018-10-02T18:51:24.316Z,11.57
2018-10-02T18:53:53.993Z,7.23
2018-10-02T18:56:23.594Z,17.83
2018-10-02T18:58:52.936Z,7.53
2018-10-02T19:01:22.125Z,6.93
2018-10-02T19:03:51.343Z,9.40
2018-10-02T19:06:20.555Z,10.83
2018-10-02T19:08:54.951Z,9.17
2018-10-02T19:11:29.506Z,14.47
2018-10-02T19:13:58.852Z,11.00
2018-10-02T19:16:31.205Z,15.33
2018-10-02T19:19:11.191Z,14.13
2018-10-02T19:21:40.505Z,10.63
2018-10-02T19:24:09.705Z,13.33
2018-10-02T19:26:38.913Z,14.73
2018-10-02T19:29:08.197Z,10.30
2018-10-02T19:31:42.712Z,10.67
2018-10-02T19:34:12.173Z,15.30
2018-10-02T19:36:41.503Z,11.00
2018-10-02T19:39:14.020Z,9.93
2018-10-02T19:41:43.277Z,15.13
2018-10-02T19:44:12.637Z,10.33
2018-10-02T19:46:47.201Z,13.73
2018-10-02T19:49:18.669Z,9.77
2018-10-02T19:51:53.580Z,13.30
2018-10-02T19:54:23.806Z,10.43
2018-10-02T19:56:53.108Z,11.67
2018-10-02T19:59:22.695Z,14.60
2018-10-02T20:01:52.101Z,9.33
2018-10-02T20:04:21.308Z,10.70
2018-10-02T20:06:50.373Z,16.80
2018-10-02T20:09:19.579Z,9.57
2018-10-02T20:11:48.867Z,11.13
2018-10-02T20:14:17.923Z,13.37
2018-10-02T20:16:47.120Z,11.53
2018-10-02T20:19:16.272Z,12.00
2018-10-02T20:21:45.486Z,11.57
2018-10-02T20:24:14.851Z,12.30
2018-10-02T20:26:43.979Z,11.03
2018-10-02T20:29:13.212Z,10.73
2018-10-02T20:31:44.874Z,11.07
2018-10-02T20:34:14.100Z,9.80
2018-10-02T20:36:43.280Z,11.93
2018-10-02T20:39:12.973Z,8.70
2018-10-02T20:41:42.205Z,12.03
2018-10-02T20:44:11.322Z,13.80
2018-10-02T20:46:40.474Z,12.70
2018-10-02T20:49:09.730Z,16.07
2018-10-02T20:51:38.718Z,11.43
2018-10-02T20:54:07.899Z,13.63
2018-10-02T20:56:36.995Z,11.00
2018-10-02T20:59:06.121Z,14.20
2018-10-02T21:01:35.289Z,11.13
2018-10-02T21:04:04.417Z,19.80
2018-10-02T21:06:33.503Z,13.23
2018-10-02T21:09:06.064Z,10.60
2018-10-02T21:11:35.099Z,13.43
2018-10-02T21:14:04.253Z,14.30
2018-10-02T21:16:33.361Z,16.17
2018-10-02T21:19:02.514Z,12.03
2018-10-02T21:21:31.661Z,12.37
2018-10-02T21:24:00.779Z,11.23
2018-10-02T21:26:29.872Z,14.87
2018-10-02T21:28:59.003Z,12.77
2018-10-02T21:31:28.033Z,12.80
2018-10-02T21:33:57.176Z,16.07
2018-10-02T21:36:26.341Z,11.70
2018-10-02T21:38:55.483Z,14.13
2018-10-02T21:41:24.641Z,14.27
2018-10-02T21:43:53.837Z,14.20
2018-10-02T21:46:23.056Z,18.23
2018-10-02T21:48:52.152Z,10.83
2018-10-02T21:51:21.145Z,12.50
2018-10-02T21:53:50.238Z,10.83
2018-10-02T21:56:19.358Z,17.40
2018-10-02T21:58:48.626Z,14.77
2018-10-02T22:01:17.748Z,17.07
2018-10-02T22:03:46.830Z,13.70
2018-10-02T22:06:16.004Z,12.10
2018-10-02T22:08:45.260Z,15.87
2018-10-02T22:11:14.437Z,13.00
2018-10-02T22:13:43.618Z,11.23
2018-10-02T22:16:12.841Z,18.43
2018-10-02T22:18:41.938Z,15.23
2018-10-02T22:21:11.112Z,15.43
2018-10-02T22:23:40.344Z,15.93
2018-10-02T22:26:09.473Z,20.70
2018-10-02T22:28:38.522Z,15.37
2018-10-02T22:31:07.595Z,19.10
2018-10-02T22:33:36.766Z,13.87
2018-10-02T22:36:05.838Z,9.73
2018-10-02T22:38:34.914Z,17.60
2018-10-02T22:41:04.032Z,12.50
2018-10-02T22:43:33.198Z,19.13
2018-10-02T22:46:02.350Z,18.93
2018-10-02T22:48:31.430Z,12.90
2018-10-02T22:51:00.493Z,12.30
2018-10-02T22:53:29.634Z,16.60
2018-10-02T22:55:58.809Z,14.40
2018-10-02T22:58:27.909Z,18.67
2018-10-02T23:00:56.957Z,13.40
2018-10-02T23:03:26.137Z,20.27
2018-10-02T23:05:55.664Z,16.57
2018-10-02T23:08:24.899Z,15.27
2018-10-02T23:10:54.062Z,15.50
2018-10-02T23:13:23.140Z,13.57
2018-10-02T23:15:52.242Z,18.03
2018-10-02T23:18:21.356Z,13.27
2018-10-02T23:20:50.523Z,17.07
2018-10-02T23:23:19.532Z,15.20
2018-10-02T23:25:48.705Z,20.83
2018-10-02T23:28:17.812Z,18.50
2018-10-02T23:30:46.837Z,10.93
2018-10-02T23:33:15.963Z,15.80
2018-10-02T23:35:45.105Z,14.47
2018-10-02T23:38:14.192Z,22.20
2018-10-02T23:40:43.263Z,26.30
2018-10-02T23:43:12.359Z,17.83
2018-10-02T23:45:41.471Z,11.60
2018-10-02T23:48:10.555Z,18.90
2018-10-02T23:50:39.622Z,16.50
2018-10-02T23:53:08.705Z,16.67
2018-10-02T23:55:37.805Z,16.23
2018-10-02T23:58:07.204Z,19.10
